Zürich, Zwitserland

3:51 AM CEST op 02 september 2014 (GMT +0200)
n/a | Change Station
CLOSE
Current Station
Persoonlijk weerstation
Location: Binz (Maur), ZüRICH
Geometrische hoogte: 2060 ft
Nabije weerstations

Hoogte 2060 ft 47.36 °N, 8.63 °E | Updated 2 seconds ago

Mostly Cloudy
Merendeels bewolkt
47.8 °F
Voelt als 48 °F
N
0.0
Wind Variabel Wind van ZW
Gusts 0.0 mijl/u

Vandaag
Hoog -- | Laag -- °F
--% Kans op neerslag
Gisteren
Hoog -- | Laag -- °F
Precip. -- inches
6:45 AM 8:04 PM
Wassende halvemaan, 46% visible
Druk 30.15 inches
Zicht 6.2 mijlen
Wolken Gering 3500 ft
Merendeels bewolkt 6000 ft
Gevoelstemperatuur 48 °F
Dauwpunt 48 °F
Vochtigheid 99%
Neerslag 0.00 inches
Dikte sneeuw Niet beschikbaar.
UV 0.0 van de 12
Pollen Niet beschikbaar.
Luchtkwaliteit Niet beschikbaar.
Flu Activity Niet beschikbaar.
METAR LSZH 020120Z 28001KT 9999 FEW035 BKN060 11/10 Q1021 NOSIG

More Conditions Fewer Conditions

Druk 30.15 inches
Zicht 6.2 mijlen
Wolken Gering 3500 ft
Merendeels bewolkt 6000 ft
Gevoelstemperatuur 48 °F
Dauwpunt 48 °F
Vochtigheid 99%
Neerslag 0.00 inches
Dikte sneeuw Niet beschikbaar.
UV 0.0 van de 12
Pollen Niet beschikbaar.
Luchtkwaliteit Niet beschikbaar.
Flu Activity Niet beschikbaar.
METAR LSZH 020120Z 28001KT 9999 FEW035 BKN060 11/10 Q1021 NOSIG

More Conditions Fewer Conditions

10-Day Weather Forecast

Almanac

Astronomie

Sep. 02, 2014 Opkomst Ondergang
Werkelijke tijd 6:45 AM CEST 8:04 PM CEST
Burgerlijke schemering 6:13 AM CEST 8:35 PM CEST
Nautische schemering 5:35 AM CEST 9:14 PM CEST
Astronomische schemering 4:54 AM CEST 9:55 PM CEST
Maan 2:42 PM CEST Geen maanondergang
Golflengte van het zichtbare licht 14h 22m
Daglengte
13h 18m
Tomorrow will be 3m 17s shorter.
Wassende halvemaan, 46% of the Moon is Illuminated
sep 1
Wassende halvemaan
sep 2
Eerste kwartier
sep 8
Volle maan
sep 15
Laatste kwartier
sep 24
Nieuw

Extremen gisteren

Country Highs Country Lows

Community

WunderPhotos

Upload Photos

1,749,476 foto’s ge-upload!

Nearby

Luchtkwaliteit

Not available.

Dikte sneeuw

Not available.

Aardbevingen

Stad Distance Mag. Time & Date
No recent earthquake activity has been reported nearby.
Minimum magnitude displayed is 2.5.

Watertemperatuur langs de kust

Plaats Temperatuur
Geen meldingen van stations

Nabije weerstations